GCHI/VDE METAR and TAF weather

Enter ICAO airport designator
Station Type Date Time Source
GCHI METAR 2020/07/12 06:30 UTC NOAA

GCHI 120630Z 35014KT 9999 FEW018 21/18 Q1014


Station Type Date Time Source
GCHI Decoded METAR 2020/07/12 06:30 UTC NOAA

Hierro / Aeropuerto, Spain (GCHI) 27-49N 017-53W 32M
Jul 12, 2020 - 02:30 AM EDT / 2020.07.12 0630 UTC
Wind: from the N (350 degrees) at 16 MPH (14 KT):0
Visibility: greater than 7 mile(s):0
Sky conditions: mostly clear
Temperature: 69 F (21 C)
Dew Point: 64 F (18 C)
Relative Humidity: 82%
Pressure (altimeter): 29.94 in. Hg (1014 hPa)
ob: GCHI 120630Z 35014KT 9999 FEW018 21/18 Q1014
cycle: 6

Station Type Date Time Source
GCHI TAF 2020/07/11 15:00 UTC NOAA

TAF GCHI 111400Z 1115/1215 35018KT 9999 SCT015 TX25/1214Z TN22/1206Z PROB30
TEMPO 1115/1121 35020G30KT

Example: see airport list